Kagamaru — JD3049 — position and weather

sailwx.info

Track history (hours):
 
Tides and Currents Weather Stations Pressure Air Temp Water Temp Dewpoint Dewpoint Depression Visibility Wind Speed Wind Dir Waves Ship Positions

Kagamaru

Last reported at 2015-Mar-03 10:03 UTC. Time now 2015-Mar-03 11:18 UTC.
Position N 35°27' E 139°39'.

Length 34 m; draft 3.6 m.

Type: Tug. MMSI: 431001272.

Date/timePositionNaut miles runAvg speedWind from/ knotsBaromVisibWave heightAir tempDewpointWater temp
2015-Mar-03 10:03N 35°27' E 139°39'4 7.3
2015-Mar-03 09:33N 35°29' E 139°43'0 0.2
2015-Mar-03 08:33N 35°29' E 139°43'3 2.6
2015-Mar-03 07:33N 35°28' E 139°40'1 1.3
2015-Mar-03 06:33N 35°27' E 139°39'0 0.0
2015-Mar-03 05:33N 35°27' E 139°39'0 0.0
2015-Mar-03 04:33N 35°27' E 139°39'0 0.0
2015-Mar-03 03:33N 35°27' E 139°39'0 0.0
2015-Mar-03 02:33N 35°27' E 139°39'0 0.0
2015-Mar-03 01:33N 35°27' E 139°39'0 0.0
2015-Mar-03 00:33N 35°27' E 139°39'1 0.7
2015-Mar-02 23:33N 35°27' E 139°40'1 1.3
2015-Mar-02 22:33N 35°27' E 139°42'2 1.9
2015-Mar-02 21:33N 35°27' E 139°39'0 0.1
2015-Mar-02 20:33N 35°27' E 139°39'0 0.0
2015-Mar-02 19:33N 35°27' E 139°39'0 0.0
2015-Mar-02 18:33N 35°27' E 139°39'0 0.0
2015-Mar-02 17:33N 35°27' E 139°39'0 0.0
2015-Mar-02 16:33N 35°27' E 139°39'0 0.0
2015-Mar-02 15:33N 35°27' E 139°39'0 0.0
2015-Mar-02 14:33N 35°27' E 139°39'0 0.0
2015-Mar-02 13:33N 35°27' E 139°39'0 0.0
2015-Mar-02 12:33N 35°27' E 139°39'0 0.0
2015-Mar-02 11:33N 35°27' E 139°39'0 0.0
2015-Mar-02 10:33N 35°27' E 139°39'0 0.0
2015-Mar-02 09:33N 35°27' E 139°39'0 0.0
2015-Mar-02 08:33N 35°27' E 139°39'0 0.0
2015-Mar-02 07:33N 35°27' E 139°39'0 0.0
2015-Mar-02 06:33N 35°27' E 139°39'0 0.0
2015-Mar-02 05:33N 35°27' E 139°39'0 0.1
2015-Mar-02 04:33N 35°27' E 139°39'3 3.1
2015-Mar-02 03:33N 35°24' E 139°38'0 0.0
2015-Mar-02 02:33N 35°24' E 139°38'2 2.2
2015-Mar-02 01:34N 35°23' E 139°41'1 0.5
2015-Mar-02 00:33N 35°23' E 139°40'6 6.1
2015-Mar-01 23:34N 35°29' E 139°42'1 1.2
2015-Mar-01 22:33N 35°29' E 139°43'2 1.9
2015-Mar-01 21:34N 35°28' E 139°45'4 4.5
2015-Mar-01 20:33N 35°27' E 139°39'0 0.0
2015-Mar-01 19:33N 35°27' E 139°39'0 0.0
2015-Mar-01 18:33N 35°27' E 139°39'0 0.0
2015-Mar-01 17:33N 35°27' E 139°39'0 0.0
2015-Mar-01 16:33N 35°27' E 139°39'0 0.0
2015-Mar-01 15:33N 35°27' E 139°39'0 0.0
2015-Mar-01 14:33N 35°27' E 139°39'0 0.0
2015-Mar-01 13:33N 35°27' E 139°39'0 0.0
2015-Mar-01 12:33N 35°27' E 139°39'0 0.0
2015-Mar-01 11:33N 35°27' E 139°39'2 1.7
2015-Mar-01 10:33N 35°29' E 139°39'1 1.3
2015-Mar-01 09:33N 35°27' E 139°39'0 0.2
2015-Mar-01 08:33N 35°27' E 139°39'0 0.0
2015-Mar-01 07:33N 35°27' E 139°39'1 1.0
2015-Mar-01 06:34N 35°28' E 139°40'1 1.2
2015-Mar-01 05:33N 35°27' E 139°39'0 0.0
2015-Mar-01 04:34N 35°27' E 139°39'1 0.7
2015-Mar-01 03:34N 35°27' E 139°40'4 3.5
2015-Mar-01 02:27N 35°29' E 139°44'2 2.2
2015-Mar-01 01:34N 35°30' E 139°46'1 1.0
2015-Mar-01 00:33N 35°30' E 139°45'3 3.5
2015-Feb-28 23:33N 35°27' E 139°43'3 3.4
2015-Feb-28 22:34N 35°27' E 139°39'0 0.0
2015-Feb-28 21:34N 35°27' E 139°39'0 0.0
2015-Feb-28 20:34N 35°27' E 139°39'0 0.0
2015-Feb-28 19:33N 35°27' E 139°39'0 0.0
2015-Feb-28 18:34N 35°27' E 139°39'0 0.0
2015-Feb-28 17:33N 35°27' E 139°39'0 0.0
2015-Feb-28 16:33N 35°27' E 139°39'0 0.0
2015-Feb-28 15:34N 35°27' E 139°39'0 0.0
2015-Feb-28 14:34N 35°27' E 139°39'0 0.0
2015-Feb-28 13:34N 35°27' E 139°39'0 0.0
2015-Feb-28 12:34N 35°27' E 139°39'0 0.0
2015-Feb-28 11:34N 35°27' E 139°39'0 0.0
2015-Feb-28 10:33N 35°27' E 139°39'0 0.0
2015-Feb-28 09:33N 35°27' E 139°39'0 0.0
2015-Feb-28 08:33N 35°27' E 139°39'0 0.0
2015-Feb-28 07:34N 35°27' E 139°39'0 0.0
2015-Feb-28 06:34N 35°27' E 139°39'0 0.0
2015-Feb-28 05:33N 35°27' E 139°39'0 0.0
2015-Feb-28 04:33N 35°27' E 139°39'0 0.0
2015-Feb-28 03:34N 35°27' E 139°39'0 0.0
2015-Feb-28 02:33N 35°27' E 139°39'0 0.0
2015-Feb-28 01:34N 35°27' E 139°39'2 2.3
2015-Feb-28 00:34N 35°26' E 139°42'0 0.4
2015-Feb-27 23:34N 35°27' E 139°42'1 0.8
2015-Feb-27 22:34N 35°27' E 139°41'1 1.3
2015-Feb-27 21:33N 35°26' E 139°42'2 2.5
2015-Feb-27 20:33N 35°27' E 139°39'0 0.0
2015-Feb-27 19:33N 35°27' E 139°39'0 0.0
2015-Feb-27 18:34N 35°27' E 139°39'0 0.0
2015-Feb-27 17:34N 35°27' E 139°39'0 0.0
2015-Feb-27 16:34N 35°27' E 139°39'0 0.0
2015-Feb-27 15:34N 35°27' E 139°39'0 0.0
2015-Feb-27 14:34N 35°27' E 139°39'0 0.0
2015-Feb-27 13:34N 35°27' E 139°39'0 0.0
2015-Feb-27 12:33N 35°27' E 139°39'0 0.0
2015-Feb-27 11:34N 35°27' E 139°39'0 0.0
2015-Feb-27 10:34N 35°27' E 139°39'0 0.0
2015-Feb-27 09:34N 35°27' E 139°39'0 0.0
2015-Feb-27 08:34N 35°27' E 139°39'1 0.5
2015-Feb-27 07:33N 35°27' E 139°40'0 0.3
2015-Feb-27 06:33N 35°27' E 139°39'0 0.0
2015-Feb-27 05:34N 35°27' E 139°39'0 0.0
2015-Feb-27 04:33N 35°27' E 139°39'0 0.0
2015-Feb-27 03:34N 35°27' E 139°39'4 3.5
2015-Feb-27 02:34N 35°29' E 139°43'3 3.2
2015-Feb-27 01:33N 35°31' E 139°46'0 0.1
2015-Feb-27 00:33N 35°31' E 139°46'0 0.4
2015-Feb-26 23:33N 35°31' E 139°46'1 0.6
2015-Feb-26 22:33N 35°31' E 139°46'7 7.0
2015-Feb-26 21:34N 35°27' E 139°39'0 0.0
2015-Feb-26 20:33N 35°27' E 139°39'0 0.0
2015-Feb-26 19:34N 35°27' E 139°39'0 0.0
2015-Feb-26 18:34N 35°27' E 139°39'0 0.0
2015-Feb-26 17:33N 35°27' E 139°39'0 0.0
2015-Feb-26 16:34N 35°27' E 139°39'0 0.0
2015-Feb-26 15:33N 35°27' E 139°39'0 0.0
2015-Feb-26 14:34N 35°27' E 139°39'0 0.0
2015-Feb-26 13:34N 35°27' E 139°39'0 0.0
2015-Feb-26 12:34N 35°27' E 139°39'0 0.0
2015-Feb-26 11:34N 35°27' E 139°39'0 0.0
2015-Feb-26 10:34N 35°27' E 139°39'0 0.0
2015-Feb-26 09:34N 35°27' E 139°39'0 0.0
2015-Feb-26 08:34N 35°27' E 139°39'0 0.0
2015-Feb-26 07:34N 35°27' E 139°39'1 0.9
2015-Feb-26 06:34N 35°27' E 139°40'0 0.3
2015-Feb-26 05:34N 35°28' E 139°40'0 0.0
2015-Feb-26 04:34N 35°28' E 139°40'0 0.0
2015-Feb-26 03:33N 35°28' E 139°40'0 0.0
2015-Feb-26 02:34N 35°28' E 139°40'0 0.0
2015-Feb-26 01:33N 35°28' E 139°40'0 0.0
2015-Feb-26 00:34N 35°28' E 139°40'0 0.4
2015-Feb-25 23:32N 35°27' E 139°41'4 3.7
2015-Feb-25 22:30N 35°26' E 139°45'5 1.1
2015-Feb-25 18:16N 35°27' E 139°39'0 0.0
2015-Feb-25 17:34N 35°27' E 139°39'0 0.0
2015-Feb-25 16:34N 35°27' E 139°39'0 0.0
2015-Feb-25 15:34N 35°27' E 139°39'0 0.0
2015-Feb-25 14:34N 35°27' E 139°39'0 0.0
2015-Feb-25 13:33N 35°27' E 139°39'0 0.0
2015-Feb-25 12:34N 35°27' E 139°39'0 0.0
2015-Feb-25 11:34N 35°27' E 139°39'0 0.0
2015-Feb-25 10:34N 35°27' E 139°39'0 0.0
2015-Feb-25 09:34N 35°27' E 139°39'0 0.0
2015-Feb-25 08:33N 35°27' E 139°39'0 0.0
2015-Feb-25 07:34N 35°27' E 139°39'0 0.0
2015-Feb-25 06:34N 35°27' E 139°39'0 0.0
2015-Feb-25 05:33N 35°27' E 139°39'0 0.0
2015-Feb-25 04:33N 35°27' E 139°39'0 0.0
2015-Feb-25 03:33N 35°27' E 139°39'0 0.0
2015-Feb-25 02:34N 35°27' E 139°39'0 0.0
2015-Feb-25 01:34N 35°27' E 139°39'0 0.0
2015-Feb-25 00:33N 35°27' E 139°39'0 0.0
2015-Feb-24 23:34N 35°27' E 139°39'2 1.8
2015-Feb-24 22:34N 35°27' E 139°41'2 1.7
2015-Feb-24 21:34N 35°27' E 139°39'2 1.7
2015-Feb-24 20:34N 35°27' E 139°41'1 1.3
2015-Feb-24 19:33N 35°28' E 139°40'0 0.0
2015-Feb-24 18:34N 35°28' E 139°40'0 0.0
2015-Feb-24 17:34N 35°28' E 139°40'0 0.0
2015-Feb-24 16:34N 35°28' E 139°40'4 3.6
2015-Feb-24 15:34N 35°30' E 139°44'4 3.7
2015-Feb-24 14:34N 35°28' E 139°40'0 0.1
2015-Feb-24 13:34N 35°28' E 139°40'0 0.0
2015-Feb-24 12:33N 35°28' E 139°40'1 0.7
2015-Feb-24 11:34N 35°27' E 139°40'1 1.0
2015-Feb-24 10:34N 35°26' E 139°41'2 2.1
2015-Feb-24 09:34N 35°27' E 139°43'2 2.4
2015-Feb-24 08:33N 35°27' E 139°40'1 0.6
2015-Feb-24 07:34N 35°27' E 139°39'0 0.0
2015-Feb-24 06:34N 35°27' E 139°39'0 0.0
2015-Feb-24 05:34N 35°27' E 139°39'0 0.0
2015-Feb-24 04:34N 35°27' E 139°39'0 0.0
2015-Feb-24 03:34N 35°27' E 139°39'0 0.0
2015-Feb-24 02:34N 35°27' E 139°39'0 0.0
2015-Feb-24 01:33N 35°27' E 139°39'0 0.0
2015-Feb-24 00:34N 35°27' E 139°39'0 0.0
2015-Feb-23 23:34N 35°27' E 139°39'0 0.0
2015-Feb-23 22:33N 35°27' E 139°39'0 0.0
2015-Feb-23 21:33N 35°27' E 139°39'0 0.0
2015-Feb-23 20:34N 35°27' E 139°39'0 0.0
2015-Feb-23 19:34N 35°27' E 139°39'0 0.0
2015-Feb-23 18:34N 35°27' E 139°39'0 0.0
2015-Feb-23 17:33N 35°27' E 139°39'0 0.0
2015-Feb-23 16:33N 35°27' E 139°39'0 0.0
2015-Feb-23 15:33N 35°27' E 139°39'0 0.0
2015-Feb-23 14:34N 35°27' E 139°39'0 0.0
2015-Feb-23 13:34N 35°27' E 139°39'0 0.0
2015-Feb-23 12:34N 35°27' E 139°39'0 0.0
2015-Feb-23 11:34N 35°27' E 139°39'0 0.0
2015-Feb-23 10:33N 35°27' E 139°39'0 0.0
2015-Feb-23 09:33N 35°27' E 139°39'0 0.0
2015-Feb-23 08:34N 35°27' E 139°39'0 0.0
2015-Feb-23 07:34N 35°27' E 139°39'0 0.0
2015-Feb-23 06:34N 35°27' E 139°39'0 0.0
2015-Feb-23 05:34N 35°27' E 139°39'3 2.8
2015-Feb-23 04:33N 35°27' E 139°43'3 2.8
2015-Feb-23 03:33N 35°29' E 139°45'1 0.6
2015-Feb-23 01:27N 35°28' E 139°44'0 0.6
2015-Feb-23 00:34N 35°28' E 139°44'2 1.7
2015-Feb-22 23:33N 35°27' E 139°43'3 3.1
2015-Feb-22 22:33N 35°28' E 139°39'3 2.8
2015-Feb-22 21:33N 35°27' E 139°42'2 1.9
2015-Feb-22 20:34N 35°27' E 139°40'0 0.0
2015-Feb-22 19:34N 35°27' E 139°40'0 0.0
2015-Feb-22 18:34N 35°27' E 139°40'0 0.0
2015-Feb-22 17:33N 35°27' E 139°40'0 0.0
2015-Feb-22 16:34N 35°27' E 139°40'0 0.0
2015-Feb-22 15:33N 35°27' E 139°40'0 0.0
2015-Feb-22 14:34N 35°27' E 139°40'0 0.0
2015-Feb-22 13:34N 35°27' E 139°40'0 0.0
2015-Feb-22 12:34N 35°27' E 139°40'0 0.0
2015-Feb-22 11:34N 35°27' E 139°40'0 0.0
2015-Feb-22 10:34N 35°27' E 139°40'0 0.0
2015-Feb-22 09:33N 35°27' E 139°40'0 0.0
2015-Feb-22 08:34N 35°27' E 139°40'0 0.0
2015-Feb-22 07:33N 35°27' E 139°40'0 0.0
2015-Feb-22 06:34N 35°27' E 139°40'0 0.0
2015-Feb-22 05:34N 35°27' E 139°40'0 0.0
2015-Feb-22 04:34N 35°27' E 139°40'0 0.0
2015-Feb-22 03:33N 35°27' E 139°40'0 0.0
2015-Feb-22 02:34N 35°27' E 139°40'0 0.0
2015-Feb-22 01:33N 35°27' E 139°40'0 0.0
2015-Feb-22 00:33N 35°27' E 139°40'0 0.0
2015-Feb-21 23:34N 35°27' E 139°40'0 0.0
2015-Feb-21 22:33N 35°27' E 139°40'0 0.0
2015-Feb-21 21:34N 35°27' E 139°40'0 0.0
2015-Feb-21 20:34N 35°27' E 139°40'0 0.0
2015-Feb-21 19:33N 35°27' E 139°40'0 0.0
2015-Feb-21 18:33N 35°27' E 139°40'0 0.0
2015-Feb-21 17:34N 35°27' E 139°40'0 0.0
2015-Feb-21 16:33N 35°27' E 139°40'0 0.0
2015-Feb-21 15:34N 35°27' E 139°40'0 0.0
2015-Feb-21 14:34N 35°27' E 139°40'0 0.0
2015-Feb-21 13:33N 35°27' E 139°40'0 0.0
2015-Feb-21 12:34N 35°27' E 139°40'0 0.0
2015-Feb-21 11:34N 35°27' E 139°40'0 0.0
2015-Feb-21 10:34N 35°27' E 139°40'  
Track history (hours):
 
Tides and Currents Weather Stations Pressure Air Temp Water Temp Dewpoint Dewpoint Depression Visibility Wind Speed Wind Dir Waves Ship Positions

Kagamaru

Last reported at 2015-Mar-03 10:03 UTC. Time now 2015-Mar-03 11:18 UTC.
Position N 35°27' E 139°39'.

Length 34 m; draft 3.6 m.

Type: Tug. MMSI: 431001272.

Date/timePositionNaut miles runAvg speedWind from/ knotsBaromVisibWave heightAir tempDewpointWater temp
2015-Mar-03 10:03N 35°27' E 139°39'4 7.3
2015-Mar-03 09:33N 35°29' E 139°43'0 0.2
2015-Mar-03 08:33N 35°29' E 139°43'3 2.6
2015-Mar-03 07:33N 35°28' E 139°40'1 1.3
2015-Mar-03 06:33N 35°27' E 139°39'0 0.0
2015-Mar-03 05:33N 35°27' E 139°39'0 0.0
2015-Mar-03 04:33N 35°27' E 139°39'0 0.0
2015-Mar-03 03:33N 35°27' E 139°39'0 0.0
2015-Mar-03 02:33N 35°27' E 139°39'0 0.0
2015-Mar-03 01:33N 35°27' E 139°39'0 0.0
2015-Mar-03 00:33N 35°27' E 139°39'1 0.7
2015-Mar-02 23:33N 35°27' E 139°40'1 1.3
2015-Mar-02 22:33N 35°27' E 139°42'2 1.9
2015-Mar-02 21:33N 35°27' E 139°39'0 0.1
2015-Mar-02 20:33N 35°27' E 139°39'0 0.0
2015-Mar-02 19:33N 35°27' E 139°39'0 0.0
2015-Mar-02 18:33N 35°27' E 139°39'0 0.0
2015-Mar-02 17:33N 35°27' E 139°39'0 0.0
2015-Mar-02 16:33N 35°27' E 139°39'0 0.0
2015-Mar-02 15:33N 35°27' E 139°39'0 0.0
2015-Mar-02 14:33N 35°27' E 139°39'0 0.0
2015-Mar-02 13:33N 35°27' E 139°39'0 0.0
2015-Mar-02 12:33N 35°27' E 139°39'0 0.0
2015-Mar-02 11:33N 35°27' E 139°39'0 0.0
2015-Mar-02 10:33N 35°27' E 139°39'0 0.0
2015-Mar-02 09:33N 35°27' E 139°39'0 0.0
2015-Mar-02 08:33N 35°27' E 139°39'0 0.0
2015-Mar-02 07:33N 35°27' E 139°39'0 0.0
2015-Mar-02 06:33N 35°27' E 139°39'0 0.0
2015-Mar-02 05:33N 35°27' E 139°39'0 0.1
2015-Mar-02 04:33N 35°27' E 139°39'3 3.1
2015-Mar-02 03:33N 35°24' E 139°38'0 0.0
2015-Mar-02 02:33N 35°24' E 139°38'2 2.2
2015-Mar-02 01:34N 35°23' E 139°41'1 0.5
2015-Mar-02 00:33N 35°23' E 139°40'6 6.1
2015-Mar-01 23:34N 35°29' E 139°42'1 1.2
2015-Mar-01 22:33N 35°29' E 139°43'2 1.9
2015-Mar-01 21:34N 35°28' E 139°45'4 4.5
2015-Mar-01 20:33N 35°27' E 139°39'0 0.0
2015-Mar-01 19:33N 35°27' E 139°39'0 0.0
2015-Mar-01 18:33N 35°27' E 139°39'0 0.0
2015-Mar-01 17:33N 35°27' E 139°39'0 0.0
2015-Mar-01 16:33N 35°27' E 139°39'0 0.0
2015-Mar-01 15:33N 35°27' E 139°39'0 0.0
2015-Mar-01 14:33N 35°27' E 139°39'0 0.0
2015-Mar-01 13:33N 35°27' E 139°39'0 0.0
2015-Mar-01 12:33N 35°27' E 139°39'0 0.0
2015-Mar-01 11:33N 35°27' E 139°39'2 1.7
2015-Mar-01 10:33N 35°29' E 139°39'1 1.3
2015-Mar-01 09:33N 35°27' E 139°39'0 0.2
2015-Mar-01 08:33N 35°27' E 139°39'0 0.0
2015-Mar-01 07:33N 35°27' E 139°39'1 1.0
2015-Mar-01 06:34N 35°28' E 139°40'1 1.2
2015-Mar-01 05:33N 35°27' E 139°39'0 0.0
2015-Mar-01 04:34N 35°27' E 139°39'1 0.7
2015-Mar-01 03:34N 35°27' E 139°40'4 3.5
2015-Mar-01 02:27N 35°29' E 139°44'2 2.2
2015-Mar-01 01:34N 35°30' E 139°46'1 1.0
2015-Mar-01 00:33N 35°30' E 139°45'3 3.5
2015-Feb-28 23:33N 35°27' E 139°43'3 3.4
2015-Feb-28 22:34N 35°27' E 139°39'0 0.0
2015-Feb-28 21:34N 35°27' E 139°39'0 0.0
2015-Feb-28 20:34N 35°27' E 139°39'0 0.0
2015-Feb-28 19:33N 35°27' E 139°39'0 0.0
2015-Feb-28 18:34N 35°27' E 139°39'0 0.0
2015-Feb-28 17:33N 35°27' E 139°39'0 0.0
2015-Feb-28 16:33N 35°27' E 139°39'0 0.0
2015-Feb-28 15:34N 35°27' E 139°39'0 0.0
2015-Feb-28 14:34N 35°27' E 139°39'0 0.0
2015-Feb-28 13:34N 35°27' E 139°39'0 0.0
2015-Feb-28 12:34N 35°27' E 139°39'0 0.0
2015-Feb-28 11:34N 35°27' E 139°39'0 0.0
2015-Feb-28 10:33N 35°27' E 139°39'0 0.0
2015-Feb-28 09:33N 35°27' E 139°39'0 0.0
2015-Feb-28 08:33N 35°27' E 139°39'0 0.0
2015-Feb-28 07:34N 35°27' E 139°39'0 0.0
2015-Feb-28 06:34N 35°27' E 139°39'0 0.0
2015-Feb-28 05:33N 35°27' E 139°39'0 0.0
2015-Feb-28 04:33N 35°27' E 139°39'0 0.0
2015-Feb-28 03:34N 35°27' E 139°39'0 0.0
2015-Feb-28 02:33N 35°27' E 139°39'0 0.0
2015-Feb-28 01:34N 35°27' E 139°39'2 2.3
2015-Feb-28 00:34N 35°26' E 139°42'0 0.4
2015-Feb-27 23:34N 35°27' E 139°42'1 0.8
2015-Feb-27 22:34N 35°27' E 139°41'1 1.3
2015-Feb-27 21:33N 35°26' E 139°42'2 2.5
2015-Feb-27 20:33N 35°27' E 139°39'0 0.0
2015-Feb-27 19:33N 35°27' E 139°39'0 0.0
2015-Feb-27 18:34N 35°27' E 139°39'0 0.0
2015-Feb-27 17:34N 35°27' E 139°39'0 0.0
2015-Feb-27 16:34N 35°27' E 139°39'0 0.0
2015-Feb-27 15:34N 35°27' E 139°39'0 0.0
2015-Feb-27 14:34N 35°27' E 139°39'0 0.0
2015-Feb-27 13:34N 35°27' E 139°39'0 0.0
2015-Feb-27 12:33N 35°27' E 139°39'0 0.0
2015-Feb-27 11:34N 35°27' E 139°39'0 0.0
2015-Feb-27 10:34N 35°27' E 139°39'0 0.0
2015-Feb-27 09:34N 35°27' E 139°39'0 0.0
2015-Feb-27 08:34N 35°27' E 139°39'1 0.5
2015-Feb-27 07:33N 35°27' E 139°40'0 0.3
2015-Feb-27 06:33N 35°27' E 139°39'0 0.0
2015-Feb-27 05:34N 35°27' E 139°39'0 0.0
2015-Feb-27 04:33N 35°27' E 139°39'0 0.0
2015-Feb-27 03:34N 35°27' E 139°39'4 3.5
2015-Feb-27 02:34N 35°29' E 139°43'3 3.2
2015-Feb-27 01:33N 35°31' E 139°46'0 0.1
2015-Feb-27 00:33N 35°31' E 139°46'0 0.4
2015-Feb-26 23:33N 35°31' E 139°46'1 0.6
2015-Feb-26 22:33N 35°31' E 139°46'7 7.0
2015-Feb-26 21:34N 35°27' E 139°39'0 0.0
2015-Feb-26 20:33N 35°27' E 139°39'0 0.0
2015-Feb-26 19:34N 35°27' E 139°39'0 0.0
2015-Feb-26 18:34N 35°27' E 139°39'0 0.0
2015-Feb-26 17:33N 35°27' E 139°39'0 0.0
2015-Feb-26 16:34N 35°27' E 139°39'0 0.0
2015-Feb-26 15:33N 35°27' E 139°39'0 0.0
2015-Feb-26 14:34N 35°27' E 139°39'0 0.0
2015-Feb-26 13:34N 35°27' E 139°39'0 0.0
2015-Feb-26 12:34N 35°27' E 139°39'0 0.0
2015-Feb-26 11:34N 35°27' E 139°39'0 0.0
2015-Feb-26 10:34N 35°27' E 139°39'0 0.0
2015-Feb-26 09:34N 35°27' E 139°39'0 0.0
2015-Feb-26 08:34N 35°27' E 139°39'0 0.0
2015-Feb-26 07:34N 35°27' E 139°39'1 0.9
2015-Feb-26 06:34N 35°27' E 139°40'0 0.3
2015-Feb-26 05:34N 35°28' E 139°40'0 0.0
2015-Feb-26 04:34N 35°28' E 139°40'0 0.0
2015-Feb-26 03:33N 35°28' E 139°40'0 0.0
2015-Feb-26 02:34N 35°28' E 139°40'0 0.0
2015-Feb-26 01:33N 35°28' E 139°40'0 0.0
2015-Feb-26 00:34N 35°28' E 139°40'0 0.4
2015-Feb-25 23:32N 35°27' E 139°41'4 3.7
2015-Feb-25 22:30N 35°26' E 139°45'5 1.1
2015-Feb-25 18:16N 35°27' E 139°39'0 0.0
2015-Feb-25 17:34N 35°27' E 139°39'0 0.0
2015-Feb-25 16:34N 35°27' E 139°39'0 0.0
2015-Feb-25 15:34N 35°27' E 139°39'0 0.0
2015-Feb-25 14:34N 35°27' E 139°39'0 0.0
2015-Feb-25 13:33N 35°27' E 139°39'0 0.0
2015-Feb-25 12:34N 35°27' E 139°39'0 0.0
2015-Feb-25 11:34N 35°27' E 139°39'0 0.0
2015-Feb-25 10:34N 35°27' E 139°39'0 0.0
2015-Feb-25 09:34N 35°27' E 139°39'0 0.0
2015-Feb-25 08:33N 35°27' E 139°39'0 0.0
2015-Feb-25 07:34N 35°27' E 139°39'0 0.0
2015-Feb-25 06:34N 35°27' E 139°39'0 0.0
2015-Feb-25 05:33N 35°27' E 139°39'0 0.0
2015-Feb-25 04:33N 35°27' E 139°39'0 0.0
2015-Feb-25 03:33N 35°27' E 139°39'0 0.0
2015-Feb-25 02:34N 35°27' E 139°39'0 0.0
2015-Feb-25 01:34N 35°27' E 139°39'0 0.0
2015-Feb-25 00:33N 35°27' E 139°39'0 0.0
2015-Feb-24 23:34N 35°27' E 139°39'2 1.8
2015-Feb-24 22:34N 35°27' E 139°41'2 1.7
2015-Feb-24 21:34N 35°27' E 139°39'2 1.7
2015-Feb-24 20:34N 35°27' E 139°41'1 1.3
2015-Feb-24 19:33N 35°28' E 139°40'0 0.0
2015-Feb-24 18:34N 35°28' E 139°40'0 0.0
2015-Feb-24 17:34N 35°28' E 139°40'0 0.0
2015-Feb-24 16:34N 35°28' E 139°40'4 3.6
2015-Feb-24 15:34N 35°30' E 139°44'4 3.7
2015-Feb-24 14:34N 35°28' E 139°40'0 0.1
2015-Feb-24 13:34N 35°28' E 139°40'0 0.0
2015-Feb-24 12:33N 35°28' E 139°40'1 0.7
2015-Feb-24 11:34N 35°27' E 139°40'1 1.0
2015-Feb-24 10:34N 35°26' E 139°41'2 2.1
2015-Feb-24 09:34N 35°27' E 139°43'2 2.4
2015-Feb-24 08:33N 35°27' E 139°40'1 0.6
2015-Feb-24 07:34N 35°27' E 139°39'0 0.0
2015-Feb-24 06:34N 35°27' E 139°39'0 0.0
2015-Feb-24 05:34N 35°27' E 139°39'0 0.0
2015-Feb-24 04:34N 35°27' E 139°39'0 0.0
2015-Feb-24 03:34N 35°27' E 139°39'0 0.0
2015-Feb-24 02:34N 35°27' E 139°39'0 0.0
2015-Feb-24 01:33N 35°27' E 139°39'0 0.0
2015-Feb-24 00:34N 35°27' E 139°39'0 0.0
2015-Feb-23 23:34N 35°27' E 139°39'0 0.0
2015-Feb-23 22:33N 35°27' E 139°39'0 0.0
2015-Feb-23 21:33N 35°27' E 139°39'0 0.0
2015-Feb-23 20:34N 35°27' E 139°39'0 0.0
2015-Feb-23 19:34N 35°27' E 139°39'0 0.0
2015-Feb-23 18:34N 35°27' E 139°39'0 0.0
2015-Feb-23 17:33N 35°27' E 139°39'0 0.0
2015-Feb-23 16:33N 35°27' E 139°39'0 0.0
2015-Feb-23 15:33N 35°27' E 139°39'0 0.0
2015-Feb-23 14:34N 35°27' E 139°39'0 0.0
2015-Feb-23 13:34N 35°27' E 139°39'0 0.0
2015-Feb-23 12:34N 35°27' E 139°39'0 0.0
2015-Feb-23 11:34N 35°27' E 139°39'0 0.0
2015-Feb-23 10:33N 35°27' E 139°39'0 0.0
2015-Feb-23 09:33N 35°27' E 139°39'0 0.0
2015-Feb-23 08:34N 35°27' E 139°39'0 0.0
2015-Feb-23 07:34N 35°27' E 139°39'0 0.0
2015-Feb-23 06:34N 35°27' E 139°39'0 0.0
2015-Feb-23 05:34N 35°27' E 139°39'3 2.8
2015-Feb-23 04:33N 35°27' E 139°43'3 2.8
2015-Feb-23 03:33N 35°29' E 139°45'1 0.6
2015-Feb-23 01:27N 35°28' E 139°44'0 0.6
2015-Feb-23 00:34N 35°28' E 139°44'2 1.7
2015-Feb-22 23:33N 35°27' E 139°43'3 3.1
2015-Feb-22 22:33N 35°28' E 139°39'3 2.8
2015-Feb-22 21:33N 35°27' E 139°42'2 1.9
2015-Feb-22 20:34N 35°27' E 139°40'0 0.0
2015-Feb-22 19:34N 35°27' E 139°40'0 0.0
2015-Feb-22 18:34N 35°27' E 139°40'0 0.0
2015-Feb-22 17:33N 35°27' E 139°40'0 0.0
2015-Feb-22 16:34N 35°27' E 139°40'0 0.0
2015-Feb-22 15:33N 35°27' E 139°40'0 0.0
2015-Feb-22 14:34N 35°27' E 139°40'0 0.0
2015-Feb-22 13:34N 35°27' E 139°40'0 0.0
2015-Feb-22 12:34N 35°27' E 139°40'0 0.0
2015-Feb-22 11:34N 35°27' E 139°40'0 0.0
2015-Feb-22 10:34N 35°27' E 139°40'0 0.0
2015-Feb-22 09:33N 35°27' E 139°40'0 0.0
2015-Feb-22 08:34N 35°27' E 139°40'0 0.0
2015-Feb-22 07:33N 35°27' E 139°40'0 0.0
2015-Feb-22 06:34N 35°27' E 139°40'0 0.0
2015-Feb-22 05:34N 35°27' E 139°40'0 0.0
2015-Feb-22 04:34N 35°27' E 139°40'0 0.0
2015-Feb-22 03:33N 35°27' E 139°40'0 0.0
2015-Feb-22 02:34N 35°27' E 139°40'0 0.0
2015-Feb-22 01:33N 35°27' E 139°40'0 0.0
2015-Feb-22 00:33N 35°27' E 139°40'0 0.0
2015-Feb-21 23:34N 35°27' E 139°40'0 0.0
2015-Feb-21 22:33N 35°27' E 139°40'0 0.0
2015-Feb-21 21:34N 35°27' E 139°40'0 0.0
2015-Feb-21 20:34N 35°27' E 139°40'0 0.0
2015-Feb-21 19:33N 35°27' E 139°40'0 0.0
2015-Feb-21 18:33N 35°27' E 139°40'0 0.0
2015-Feb-21 17:34N 35°27' E 139°40'0 0.0
2015-Feb-21 16:33N 35°27' E 139°40'0 0.0
2015-Feb-21 15:34N 35°27' E 139°40'0 0.0
2015-Feb-21 14:34N 35°27' E 139°40'0 0.0
2015-Feb-21 13:33N 35°27' E 139°40'0 0.0
2015-Feb-21 12:34N 35°27' E 139°40'0 0.0
2015-Feb-21 11:34N 35°27' E 139°40'0 0.0
2015-Feb-21 10:34N 35°27' E 139°40'  

Dump ship's entire track history